地図

経路データ

SID SEASON NUMBER BASIN SUBBASIN NAME ISO_TIME NATURE LAT LON WMO_WIND WMO_PRES WMO_AGENCY TRACK_TYPE DIST2LAND LANDFALL IFLAG USA_AGENCY USA_ATCF_ID USA_LAT USA_LON USA_RECORD USA_STATUS USA_WIND USA_PRES USA_SSHS USA_R34_NE USA_R34_SE USA_R34_SW USA_R34_NW USA_R50_NE USA_R50_SE USA_R50_SW USA_R50_NW USA_R64_NE USA_R64_SE USA_R64_SW USA_R64_NW USA_POCI USA_ROCI USA_RMW USA_EYE TOKYO_LAT TOKYO_LON TOKYO_GRADE TOKYO_WIND TOKYO_PRES TOKYO_R50_DIR TOKYO_R50_LONG TOKYO_R50_SHORT TOKYO_R30_DIR TOKYO_R30_LONG TOKYO_R30_SHORT TOKYO_LAND CMA_LAT CMA_LON CMA_CAT CMA_WIND CMA_PRES HKO_LAT HKO_LON HKO_CAT HKO_WIND HKO_PRES NEWDELHI_LAT NEWDELHI_LON NEWDELHI_GRADE NEWDELHI_WIND NEWDELHI_PRES NEWDELHI_CI NEWDELHI_DP NEWDELHI_POCI REUNION_LAT REUNION_LON REUNION_TYPE REUNION_WIND REUNION_PRES REUNION_TNUM REUNION_CI REUNION_RMW REUNION_R34_NE REUNION_R34_SE REUNION_R34_SW REUNION_R34_NW REUNION_R50_NE REUNION_R50_SE REUNION_R50_SW REUNION_R50_NW REUNION_R64_NE REUNION_R64_SE REUNION_R64_SW REUNION_R64_NW BOM_LAT BOM_LON BOM_TYPE BOM_WIND BOM_PRES BOM_TNUM BOM_CI BOM_RMW BOM_R34_NE BOM_R34_SE BOM_R34_SW BOM_R34_NW BOM_R50_NE BOM_R50_SE BOM_R50_SW BOM_R50_NW BOM_R64_NE BOM_R64_SE BOM_R64_SW BOM_R64_NW BOM_ROCI BOM_POCI BOM_EYE BOM_POS_METHOD BOM_PRES_METHOD NADI_LAT NADI_LON NADI_CAT NADI_WIND NADI_PRES WELLINGTON_LAT WELLINGTON_LON WELLINGTON_WIND WELLINGTON_PRES DS824_LAT DS824_LON DS824_STAGE DS824_WIND DS824_PRES TD9636_LAT TD9636_LON TD9636_STAGE TD9636_WIND TD9636_PRES TD9635_LAT TD9635_LON TD9635_WIND TD9635_PRES TD9635_ROCI NEUMANN_LAT NEUMANN_LON NEUMANN_CLASS NEUMANN_WIND NEUMANN_PRES MLC_LAT MLC_LON MLC_CLASS MLC_WIND MLC_PRES USA_GUST BOM_GUST BOM_GUST_PER REUNION_GUST REUNION_GUST_PER USA_SEAHGT USA_SEARAD_NE USA_SEARAD_SE USA_SEARAD_SW USA_SEARAD_NW STORM_SPEED STORM_DIR
1971047S15090 1971 24 SI WA KALINKA 1971-02-16 06:00:00 TS -15.4000 90.3000 main 1801 1801 O________OO___ jtwc_sh SH201971 -15.4000 90.3000 -1 -15.4000 90.3000 TC 25 -15.4000 90.3000 1 8 262
1971047S15090 1971 24 SI MM KALINKA 1971-02-16 09:00:00 TS -15.4533 89.9032 main 1834 1834 P________PP___ SH201971 -15.4501 89.9125 -1 -15.4501 89.9125 TC 25 -15.4598 89.8846 1 8 262
1971047S15090 1971 24 SI MM KALINKA 1971-02-16 12:00:00 TS -15.5051 89.4884 main 1858 1858 O________OP___ jtwc_sh SH201971 -15.5000 89.5000 -1 -15.5000 89.5000 TC 25 -15.5154 89.4653 1 8 263
1971047S15090 1971 24 SI MM KALINKA 1971-02-16 15:00:00 TS -15.5544 89.0461 main 1898 1898 P________PP___ SH201971 -15.5500 89.0500 -1 -15.5500 89.0500 TC 25 -15.5633 89.0383 1 9 264
1971047S15090 1971 24 SI MM KALINKA 1971-02-16 18:00:00 TS -15.6000 88.6000 main 1923 1923 O________OO___ jtwc_sh SH201971 -15.6000 88.6000 -1 -15.6000 88.6000 TC 25 -15.6000 88.6000 1 8 264
1971047S15090 1971 24 SI MM KALINKA 1971-02-16 21:00:00 TS -15.6463 88.1835 main 1950 1950 P________PP___ SH201971 -15.6573 88.2000 -1 -15.6573 88.2000 TC 25 -15.6241 88.1505 1 8 264
1971047S15090 1971 24 SI MM KALINKA 1971-02-17 00:00:00 TS -15.6809 87.7683 main 1985 1985 O________OP___ jtwc_sh SH201971 -15.7000 87.8000 -1 -15.7000 87.8000 TC 25 -15.6426 87.7048 1 8 267
1971047S15090 1971 24 SI MM KALINKA 1971-02-17 03:00:00 TS -15.6883 87.3122 main 2019 2019 P________PP___ SH201971 -15.7001 87.3274 -1 -15.7001 87.3274 TC 25 -15.6648 87.2817 1 8 269
1971047S15090 1971 24 SI MM KALINKA 1971-02-17 06:00:00 TS -15.7000 86.9000 main 2047 2047 O________OO___ jtwc_sh SH201971 -15.7000 86.9000 -1 -15.7000 86.9000 TC 25 -15.7000 86.9000 1 6 266
1971047S15090 1971 24 SI MM KALINKA 1971-02-17 09:00:00 TS -15.7371 86.6566 main 2061 2061 P________PP___ SH201971 -15.7348 86.6275 -1 -15.7348 86.6275 TC 25 -15.7418 86.7149 1 4 257
1971047S15090 1971 24 SI MM KALINKA 1971-02-17 12:00:00 TS -15.8002 86.4502 main 2084 2084 O________OP___ jtwc_sh SH201971 -15.8000 86.4000 -1 -15.8000 86.4000 TC 25 -15.8007 86.5507 1 4 250
1971047S15090 1971 24 SI MM KALINKA 1971-02-17 15:00:00 TS -15.8842 86.2419 main 2114 2114 P________PP___ SH201971 -15.8841 86.2197 -1 -15.8841 86.2197 TC 25 -15.8844 86.2862 1 7 252
1971047S15090 1971 24 SI MM KALINKA 1971-02-17 18:00:00 TS -16.0000 85.8000 main 2151 2151 O________OO___ jtwc_sh SH201971 -16.0000 85.8000 -1 -16.0000 85.8000 TC 25 -16.0000 85.8000 1 13 259
1971047S15090 1971 24 SI MM KALINKA 1971-02-17 21:00:00 TS -16.1433 84.8775 main 2226 2226 P________PP___ SH201971 -16.1355 84.8774 -1 -16.1355 84.8774 TC 25 -16.1588 84.8777 1 20 261
1971047S15090 1971 24 SI MM KALINKA 1971-02-18 00:00:00 TS -16.3139 83.7122 main 2334 2334 O________OP___ jtwc_sh SH201971 -16.3000 83.7000 -1 -16.3000 83.7000 TC 25 -16.3416 83.7367 1 23 261
1971047S15090 1971 24 SI MM KALINKA 1971-02-18 03:00:00 TS -16.5146 82.5077 main 2444 2444 P________PP___ SH201971 -16.5081 82.4979 -1 -16.5081 82.4979 TC 30 -16.5277 82.5272 1 23 260
1971047S15090 1971 24 SI MM KALINKA 1971-02-18 06:00:00 TS -16.7000 81.4000 reunion main 2518 2443 O________OO___ jtwc_sh SH201971 -16.7000 81.4000 -1 -16.7000 81.4000 TC 35 -16.7000 81.4000 2 18 261
1971047S15090 1971 24 SI MM KALINKA 1971-02-18 09:00:00 TS -16.8150 80.6152 main 2433 2368 P________PP___ SH201971 -16.8063 80.6396 -1 -16.8063 80.6396 TC 35 -16.8322 80.5664 2 14 261
1971047S15090 1971 24 SI MM KALINKA 1971-02-18 12:00:00 TS -16.9179 79.9455 reunion main 2358 2293 O________OP___ jtwc_sh SH201971 -16.9000 80.0000 -1 -16.9000 80.0000 TC 35 -16.9536 79.8365 2 14 260
1971047S15090 1971 24 SI MM KALINKA 1971-02-18 15:00:00 TS -17.0527 79.2211 main 2280 2192 P________PP___ SH201971 -17.0424 79.2500 -1 -17.0424 79.2500 TC 35 -17.0734 79.1634 2 16 257
1971047S15090 1971 24 SI MM KALINKA 1971-02-18 18:00:00 TS -17.2714 78.3286 reunion main 2182 2105 O____O___OO_O_ jtwc_sh SH201971 -17.2000 78.5000 -1 -17.7000 77.3000 99 9.90000 -17.2000 78.5000 TC 35 -17.2000 78.5000 2 -17.7000 77.3000 TC 55 16 255
1971047S15090 1971 24 SI MM KALINKA 1971-02-18 21:00:00 TS -17.4690 77.5807 main 2105 2040 P____P___PP_P_ SH201971 -17.3496 77.7999 -1 -17.8201 77.0027 99 -17.3496 77.7999 TC 35 -17.3471 77.7306 2 -17.8201 77.0027 TC 57 14 255
1971047S15090 1971 24 SI MM KALINKA 1971-02-19 00:00:00 TS -17.6334 76.9373 reunion main 2030 1973 O____O___OP_O_ jtwc_sh SH201971 -17.5000 77.1000 -1 -17.9000 76.7000 99 9.90000 -17.5000 77.1000 TC 35 -17.5005 76.9679 2 -17.9000 76.7000 TC 60 12 256
1971047S15090 1971 24 SI MM KALINKA 1971-02-19 03:00:00 TS -17.7617 76.3291 main 1963 1909 P____P___PP_P_ SH201971 -17.6502 76.3200 -1 -17.9273 76.3797 99 -17.6502 76.3200 TC 35 -17.6535 76.2462 2 -17.9273 76.3797 TC 62 11 258
1971047S15090 1971 24 SI MM KALINKA 1971-02-19 06:00:00 TS -17.8800 75.7600 reunion main 1909 1855 O____O___OO_O_ jtwc_sh SH201971 -17.8000 75.6000 -1 -18.0000 76.0000 4 9.90000 -17.8000 75.6000 TC 35 -17.8000 75.6000 2 -18.0000 76.0000 TC 65 11 254
1971047S15090 1971 24 SI MM KALINKA 1971-02-19 09:00:00 TS -18.0553 75.2489 main 1842 1799 P____P___PP_P_ SH201971 -17.9571 75.0474 -1 -18.2199 75.5376 4 -17.9571 75.0474 TC 35 -17.9225 75.0743 2 -18.2199 75.5376 TC 67 10 249
1971047S15090 1971 24 SI MM KALINKA 1971-02-19 12:00:00 TS -18.2481 74.7648 reunion main 1799 1743 O____O___OP_O_ jtwc_sh SH201971 -18.1000 74.6000 -1 -18.5000 75.0000 99 9.90000 -18.1000 74.6000 TC 35 -18.0406 74.6241 2 -18.5000 75.0000 TC 70 10 248
1971047S15090 1971 24 SI MM KALINKA 1971-02-19 15:00:00 TS -18.4154 74.3002 main 1743 1687 P____P___PP_P_ SH201971 -18.1997 74.1998 -1 -18.7571 74.4448 99 -18.1997 74.1998 TC 35 -18.1634 74.2119 2 -18.7571 74.4448 TC 72 10 250
1971047S15090 1971 24 SI MM KALINKA 1971-02-19 18:00:00 TS -18.5800 73.8000 reunion main 1687 1623 O____O___OO_O_ jtwc_sh SH201971 -18.3000 73.8000 -1 -19.0000 73.8000 99 9.90000 -18.3000 73.8000 TC 35 -18.3000 73.8000 2 -19.0000 73.8000 TC 75 11 253
1971047S15090 1971 24 SI MM KALINKA 1971-02-19 21:00:00 TS -18.7392 73.1876 main 1623 1557 P____P___PP_P_ SH201971 -18.4350 73.3075 -1 -19.1929 72.9997 99 -18.4350 73.3075 TC 35 -18.4402 73.3237 2 -19.1929 72.9997 TC 77 12 254
1971047S15090 1971 24 SI MM KALINKA 1971-02-20 00:00:00 TS -18.9195 72.5684 reunion main 1557 1502 O____O___OP_O_ jtwc_sh SH201971 -18.6000 72.8000 -1 -19.4000 72.2000 99 9.90000 -18.6000 72.8000 TC 35 -18.5974 72.8419 2 -19.4000 72.2000 TC 80 12 249
1971047S15090 1971 24 SI MM KALINKA 1971-02-20 03:00:00 TS -19.1530 72.0259 main 1490 1446 P____P___PP_P_ SH201971 -18.7773 72.3423 -1 -19.7147 71.5403 99 -18.7773 72.3423 TC 50 -18.7808 72.3642 2 -19.7147 71.5403 TC 82 11 244
1971047S15090 1971 24 SI MM KALINKA 1971-02-20 06:00:00 TS -19.4000 71.5400 reunion main 1435 1391 O____O___OO_O_ jtwc_sh SH201971 -19.0000 71.9000 -1 -20.0000 71.0000 4 9.90000 -19.0000 71.9000 TC 65 -19.0000 71.9000 4 -20.0000 71.0000 TC 85 10 243
1971047S15090 1971 24 SI MM KALINKA 1971-02-20 09:00:00 TS -19.6151 71.0818 main 1391 1348 P____P___PP_P_ SH201971 -19.2849 71.4425 -1 -20.1148 70.5396 4 -19.2849 71.4425 TC 65 -19.2760 71.4447 4 -20.1148 70.5396 TC 85 9 242
1971047S15090 1971 24 SI MM KALINKA 1971-02-20 12:00:00 TS -19.8370 70.6811 reunion main 1348 1314 O____O___OP_O_ jtwc_sh SH201971 -19.6000 71.0000 -1 -20.2000 70.2000 99 9.90000 -19.6000 71.0000 TC 65 -19.5848 71.0055 4 -20.2000 70.2000 TC 85 8 235
1971047S15090 1971 24 SI MM KALINKA 1971-02-20 15:00:00 TS -20.1001 70.3486 main 1304 1282 P____P___PP_P_ SH201971 -19.9074 70.5849 -1 -20.3922 69.9924 99 -19.9074 70.5849 TC 65 -19.9011 70.5885 4 -20.3922 69.9924 TC 85 8 229
1971047S15090 1971 24 SI MM KALINKA 1971-02-20 18:00:00 TS -20.3600 70.0400 reunion main 1271 1239 O____O___OO_O_ jtwc_sh SH201971 -20.2000 70.2000 -1 -20.6000 69.8000 99 9.90000 -20.2000 70.2000 TC 65 -20.2000 70.2000 4 -20.6000 69.8000 TC 85 8 232
1971047S15090 1971 24 SI MM KALINKA 1971-02-20 21:00:00 TS -20.5807 69.6842 main 1239 1208 P____P___PP_P_ SH201971 -20.4649 69.8349 -1 -20.7576 69.4650 99 -20.4649 69.8349 TC 65 -20.4585 69.8215 4 -20.7576 69.4650 TC 82 8 238
1971047S15090 1971 24 SI MM KALINKA 1971-02-21 00:00:00 TS -20.7790 69.3349 reunion main 1198 1167 O____O___OP_O_ jtwc_sh SH201971 -20.7000 69.5000 -1 -20.9000 69.1000 99 9.90000 -20.7000 69.5000 TC 65 -20.6948 69.4747 4 -20.9000 69.1000 TC 80 7 238
1971047S15090 1971 24 SI MM KALINKA 1971-02-21 03:00:00 TS -20.9737 69.0151 main 1167 1147 P____P___PP_P_ SH201971 -20.9150 69.1774 -1 -21.0650 68.7775 99 -20.9150 69.1774 TC 65 -20.9086 69.1655 4 -21.0650 68.7775 TC 77 7 237
1971047S15090 1971 24 SI MM KALINKA 1971-02-21 06:00:00 TS -21.1400 68.7400 reunion main 1136 1116 O____O___OO_O_ jtwc_sh SH201971 -21.1000 68.9000 -1 -21.2000 68.5000 4 9.90000 -21.1000 68.9000 TC 65 -21.1000 68.9000 4 -21.2000 68.5000 TC 75 5 238
1971047S15090 1971 24 SI MM KALINKA 1971-02-21 09:00:00 TS -21.2566 68.5195 main 1117 1097 P____P___PP_P_ SH201971 -21.2574 68.6774 -1 -21.2424 68.2848 4 -21.2574 68.6774 TC 65 -21.2834 68.6734 4 -21.2424 68.2848 TC 72 4 239
1971047S15090 1971 24 SI MM KALINKA 1971-02-21 12:00:00 TS -21.3689 68.3379 reunion main 1097 1088 O____O___OP_O_ jtwc_sh SH201971 -21.4000 68.5000 -1 -21.3000 68.1000 99 9.90000 -21.4000 68.5000 TC 65 -21.4446 68.4896 4 -21.3000 68.1000 TC 70 4 229
1971047S15090 1971 24 SI MM KALINKA 1971-02-21 15:00:00 TS -21.5457 68.1583 main 1088 1069 P____P___PP_P_ SH201971 -21.5725 68.3275 -1 -21.5000 67.9001 99 -21.5725 68.3275 TC 65 -21.5835 68.3360 4 -21.5000 67.9001 TC 70 5 223
1971047S15090 1971 24 SI MM KALINKA 1971-02-21 18:00:00 TS -21.7000 68.0000 reunion main 1069 1059 O____O___OO_O_ jtwc_sh SH201971 -21.7000 68.2000 -1 -21.7000 67.7000 99 9.90000 -21.7000 68.2000 TC 65 -21.7000 68.2000 4 -21.7000 67.7000 TC 70 3 233
1971047S15090 1971 24 SI MM KALINKA 1971-02-21 21:00:00 TS -21.7310 67.8878 main 1059 1049 P____P___PP_P_ SH201971 -21.6999 68.1574 -1 -21.7725 67.4924 99 -21.6999 68.1574 TC 65 -21.7103 68.1395 4 -21.7725 67.4924 TC 67 2 258
1971047S15090 1971 24 SI MM KALINKA 1971-02-22 00:00:00 TS -21.7427 67.7762 reunion main 1049 1039 O____O___OP_O_ jtwc_sh SH201971 -21.7000 68.1000 -1 -21.8000 67.3000 99 9.90000 -21.7000 68.1000 TC 65 -21.7133 68.0808 4 -21.8000 67.3000 TC 65 2 255
1971047S15090 1971 24 SI MM KALINKA 1971-02-22 03:00:00 TS -21.7887 67.6590 main 1040 1011 P____P___PP_P_ SH201971 -21.7672 67.9743 -1 -21.8122 67.1946 99 -21.7672 67.9743 TC 65 -21.7848 67.9569 4 -21.8122 67.1946 TC 62 4 237
1971047S15090 1971 24 SI MM KALINKA 1971-02-22 06:00:00 TS -21.9600 67.4200 reunion main 1013 978 O____O___OO_O_ jtwc_sh SH201971 -22.0000 67.7000 -1 -21.9000 67.0000 4 9.90000 -22.0000 67.7000 TC 65 -22.0000 67.7000 4 -21.9000 67.0000 TC 60 9 229
1971047S15090 1971 24 SI MM KALINKA 1971-02-22 09:00:00 TS -22.3429 66.9597 main 978 931 P____P___PP_P_ SH201971 -22.4750 67.2250 -1 -22.1551 66.5676 4 -22.4750 67.2250 TC 65 -22.4546 67.2133 4 -22.1551 66.5676 TC 57 13 228
1971047S15090 1971 24 SI MM KALINKA 1971-02-22 12:00:00 TS -22.8504 66.3577 reunion main 935 891 O____O___OP_O_ jtwc_sh SH201971 -23.1000 66.6000 -1 -22.5000 66.0000 99 9.90000 -23.1000 66.6000 TC 65 -23.0521 66.5887 4 -22.5000 66.0000 TC 55 15 228
1971047S15090 1971 24 SI MM KALINKA 1971-02-22 15:00:00 TS -23.3576 65.7194 main 885 850 P____P___PP_P_ SH201971 -23.7502 65.9078 -1 -22.7821 65.4436 99 -23.7502 65.9078 TC 65 -23.7234 65.8942 4 -22.7821 65.4436 TC 50 16 229
1971047S15090 1971 24 SI MM KALINKA 1971-02-22 18:00:00 TS -23.9200 65.0400 reunion main 841 820 O____O___OO_O_ jtwc_sh SH201971 -24.4000 65.2000 -1 -23.2000 64.8000 99 9.90000 -24.4000 65.2000 TC 65 -24.4000 65.2000 4 -23.2000 64.8000 TC 45 17 227
1971047S15090 1971 24 SI MM KALINKA 1971-02-22 21:00:00 TS -24.5365 64.3495 main 811 801 P____P___PP_P_ SH201971 -24.9571 64.5766 -1 -23.9055 64.0012 99 -24.9571 64.5766 TC 65 -24.9573 64.5922 4 -23.9055 64.0012 TC 42 18 224
1971047S15090 1971 24 SI MM KALINKA 1971-02-23 00:00:00 TS -25.1824 63.6804 reunion main 808 799 O____O___OP_O_ jtwc_sh SH201971 -25.5000 64.0000 -1 -24.7000 63.2000 99 9.90000 -25.5000 64.0000 TC 65 -25.5119 64.0019 4 -24.7000 63.2000 TC 40 17 222
1971047S15090 1971 24 SI MM KALINKA 1971-02-23 03:00:00 TS -25.8029 63.0737 main 809 802 P____P___PP_P_ SH201971 -26.0773 63.4343 -1 -25.3872 62.5320 99 -26.0773 63.4343 TC 65 -26.0856 63.4358 4 -25.3872 62.5320 TC 40 16 220
1971047S15090 1971 24 SI MM KALINKA 1971-02-23 06:00:00 MX -26.4200 62.5400 reunion main 820 820 O____O___OO_O_ jtwc_sh SH201971 -26.7000 62.9000 -1 -26.0000 62.0000 3 9.90000 -26.7000 62.9000 TC 65 -26.7000 62.9000 4 -26.0000 62.0000 EX 40 15 216
1971047S15090 1971 24 SI MM KALINKA 1971-02-23 09:00:00 MX -27.0375 62.0716 main 853 853 P____P___PP_P_ SH201971 -27.3773 62.3845 -1 -26.5222 61.5892 3 -27.3773 62.3845 TC 65 -27.3886 62.4103 4 -26.5222 61.5892 EX 40 15 212
1971047S15090 1971 24 SI MM KALINKA 1971-02-23 12:00:00 MX -27.6636 61.6693 reunion main 900 896 O____O___OP_O_ jtwc_sh SH201971 -28.1000 61.9000 -1 -27.0000 61.3000 99 9.90000 -28.1000 61.9000 TC 65 -28.1181 61.9467 4 -27.0000 61.3000 EX 40 14 208
1971047S15090 1971 24 SI MM KALINKA 1971-02-23 15:00:00 MX -28.3034 61.3221 main 944 944 P____P___PP_P_ SH201971 -28.8420 61.4638 -1 -27.4847 61.0991 99 -28.8420 61.4638 TC 65 -28.8636 61.4849 4 -27.4847 61.0991 EX 40 14 206
1971047S15090 1971 24 SI MM KALINKA 1971-02-23 18:00:00 MX -28.9600 60.9600 reunion main 1006 1001 O____O___OO_O_ jtwc_sh SH201971 -29.6000 61.0000 -1 -28.0000 60.9000 99 9.90000 -29.6000 61.0000 TC 65 -29.6000 61.0000 4 -28.0000 60.9000 EX 40 16 209
1971047S15090 1971 24 SI MM KALINKA 1971-02-23 21:00:00 MX -29.6515 60.4581 main 1048 1044 P____P___PP_P_ SH201971 -30.3726 60.4152 -1 -28.5703 60.5357 99 -30.3726 60.4152 TC 50 -30.3718 60.3887 4 -28.5703 60.5357 EX 40 16 212
1971047S15090 1971 24 SI MM KALINKA 1971-02-24 00:00:00 MX -30.3434 59.9517 reunion main 1086 1086 O____O___OP_O_ jtwc_sh SH201971 -31.1000 59.8000 -1 -29.2000 60.2000 99 9.90000 -31.1000 59.8000 TC 35 -31.1169 59.7586 4 -29.2000 60.2000 EX 40 16 210
1971047S15090 1971 24 SI MM KALINKA 1971-02-24 03:00:00 MX -31.0406 59.5386 main 1140 1140 P____P___PP_P_ SH201971 -31.7826 59.1978 -1 -29.9298 60.0618 99 -31.7826 59.1978 TC 35 -31.7783 59.1734 4 -29.9298 60.0618 EX 40 14 206
1971047S15090 1971 24 SI MM KALINKA 1971-02-24 06:00:00 MX -31.6200 59.2200 reunion main 1193 1193 O____O___OO_O_ jtwc_sh SH201971 -32.3000 58.7000 -1 -30.6000 60.0000 5 9.90000 -32.3000 58.7000 TC 35 -32.3000 58.7000 2 -30.6000 60.0000 EX 40 10 207
1971047S15090 1971 24 SI MM KALINKA 1971-02-24 09:00:00 MX -31.9691 58.9870 main 1230 1228 P____P___PP_P_ SH201971 -32.5672 58.3739 -1 -31.0450 59.8924 5 -32.5672 58.3739 TC 35 -32.6211 58.4026 2 -31.0450 59.8924 EX 40 7 209
1971047S15090 1971 24 SI MM KALINKA 1971-02-24 12:00:00 MX -32.2011 58.8459 reunion main 1246 1246 O____O___OP_O_ jtwc_sh SH201971 -32.7000 58.2000 -1 -31.4000 59.8000 99 9.90000 -32.7000 58.2000 TC 35 -32.8055 58.2295 2 -31.4000 59.8000 EX 40 5 200
1971047S15090 1971 24 SI MM KALINKA 1971-02-24 15:00:00 MX -32.4394 58.7791 main 1268 1268 P____P___PP_P_ SH201971 -32.8574 58.1198 -1 -31.7850 59.7571 99 -32.8574 58.1198 TC 35 -32.9123 58.1419 2 -31.7850 59.7571 EX 37 5 191
1971047S15090 1971 24 SI MM KALINKA 1971-02-24 18:00:00 MX -32.6800 58.7400 reunion main 1298 1298 O____O___OO_O_ jtwc_sh SH201971 -33.0000 58.1000 -1 -32.2000 59.7000 99 9.90000 -33.0000 58.1000 TC 35 -33.0000 58.1000 2 -32.2000 59.7000 EX 35 5 193
1971047S15090 1971 24 SI MM KALINKA 1971-02-24 21:00:00 MX -32.9660 58.6374 main 1328 1328 P____P___PP_P_ SH201971 -33.1500 58.0425 -1 -32.6926 59.5356 99 -33.1500 58.0425 TC 35 -33.1449 58.0307 2 -32.6926 59.5356 EX 35 6 195
1971047S15090 1971 24 SI MM KALINKA 1971-02-25 00:00:00 MX -33.2570 58.5594 reunion main 1361 1361 O____O___OP_O_ jtwc_sh SH201971 -33.3000 58.0000 -1 -33.2000 59.4000 99 9.90000 -33.3000 58.0000 TC 35 -33.2849 57.9972 2 -33.2000 59.4000 EX 35 6 187
1971047S15090 1971 24 SI MM KALINKA 1971-02-25 03:00:00 MX -33.5265 58.5569 main 1382 1382 P____P___PP_P_ SH201971 -33.4425 57.9925 -1 -33.6574 59.4048 99 -33.4425 57.9925 TC 35 -33.4324 57.9902 2 -33.6574 59.4048 EX 35 5 177
1971047S15090 1971 24 SI MM KALINKA 1971-02-25 06:00:00 MX -33.8000 58.6000 reunion main 1415 1415 O____O___OO_O_ jtwc_sh SH201971 -33.6000 58.0000 -1 -34.1000 59.5000 5 9.90000 -33.6000 58.0000 TC 35 -33.6000 58.0000 2 -34.1000 59.5000 EX 35 6 172
1971047S15090 1971 24 SI MM KALINKA 1971-02-25 09:00:00 MX -34.0873 58.6547 main 1450 1450 P____P___PP_P_ SH201971 -33.7850 57.9926 -1 -34.5350 59.6350 5 -33.7850 57.9926 TC 30 -33.7966 58.0184 2 -34.5350 59.6350 EX 35 7 163
1971047S15090 1971 24 SI MM KALINKA 1971-02-25 12:00:00 MX -34.4737 58.8545 reunion main 1497 1497 O____O___OP_O_ jtwc_sh SH201971 -34.0000 58.0000 -1 -35.0000 59.8000 99 9.90000 -34.0000 58.0000 TC 25 -34.0176 58.0424 2 -35.0000 59.8000 EX 35 10 157
1971047S15090 1971 24 SI MM KALINKA 1971-02-25 15:00:00 MX -34.9612 59.1109 main 1556 1556 P____P___PP_P_ SH201971 -34.2425 58.0399 -1 -35.4972 59.9066 99 -34.2425 58.0399 TC 25 -34.2547 58.0702 2 -35.4972 59.9066 EX 32 13 154
1971047S15090 1971 24 SI MM KALINKA 1971-02-25 18:00:00 MX -35.6636 59.5545 reunion main 1641 1500 O____O___OO_O_ jtwc_sh SH201971 -34.5000 58.1000 -1 -36.1000 60.1000 99 9.90000 -34.5000 58.1000 TC 25 -34.5000 58.1000 7 -36.1000 60.1000 EX 30 23 150
1971047S15090 1971 24 SI MM KALINKA 1971-02-25 21:00:00 ET -36.9076 60.4961 main 1486 1387 _____P______P_ SH201971 -1 -36.9076 60.4961 99 TC 7 -36.9076 60.4961 EX 30 23 150
1971047S15090 1971 24 SI MM KALINKA 1971-02-26 00:00:00 ET -37.7000 61.0000 reunion main 1387 1318 _____O______O_ -1 -37.7000 61.0000 99 9.90000 7 -37.7000 61.0000 EX 30 16 150
1971047S15090 1971 24 SI MM KALINKA 1971-02-26 03:00:00 ET -38.2727 61.5052 main 1308 1249 _____P______P_ -1 -38.2727 61.5052 99 7 -38.2727 61.5052 EX 30 13 142
1971047S15090 1971 24 SI MM KALINKA 1971-02-26 06:00:00 ET -38.7000 62.0000 reunion main 1249 _____O______O_ -1 -38.7000 62.0000 5 9.90000 -38.7000 62.0000 EX 30 12 138

IBTrACS Databaseについて

本データベースは、米国NOAAが公開する1842年以降の世界の熱帯低気圧のベストトラックデータアーカイブInternational Best Track Archive for Climate Stewardship (IBTrACS)を、ウェブで閲覧しやすい形式に変換したものです。

最終更新日:2021-10-27